sensor_id;sensor_type;location;lat;lon;timestamp;temperature;humidity
19999;DHT22;10160;50.926;4.374;2022-10-16T00:00:54;15.20;99.90
19999;DHT22;10160;50.926;4.374;2022-10-16T00:03:19;15.20;99.90
19999;DHT22;10160;50.926;4.374;2022-10-16T00:05:45;15.20;99.90
19999;DHT22;10160;50.926;4.374;2022-10-16T00:08:11;15.10;99.90
19999;DHT22;10160;50.926;4.374;2022-10-16T00:10:37;15.20;99.90
19999;DHT22;10160;50.926;4.374;2022-10-16T00:13:04;15.10;99.90
19999;DHT22;10160;50.926;4.374;2022-10-16T00:15:32;15.10;99.90
19999;DHT22;10160;50.926;4.374;2022-10-16T00:17:58;15.20;99.90
19999;DHT22;10160;50.926;4.374;2022-10-16T00:20:24;15.00;99.90
19999;DHT22;10160;50.926;4.374;2022-10-16T00:22:49;15.10;99.90
19999;DHT22;10160;50.926;4.374;2022-10-16T00:25:15;15.10;99.90
19999;DHT22;10160;50.926;4.374;2022-10-16T00:27:41;15.20;99.90
19999;DHT22;10160;50.926;4.374;2022-10-16T00:30:07;15.10;99.90
19999;DHT22;10160;50.926;4.374;2022-10-16T00:32:33;15.10;99.90
19999;DHT22;10160;50.926;4.374;2022-10-16T00:34:59;15.00;99.90
19999;DHT22;10160;50.926;4.374;2022-10-16T00:37:25;15.10;99.90
19999;DHT22;10160;50.926;4.374;2022-10-16T00:39:50;15.10;99.90
19999;DHT22;10160;50.926;4.374;2022-10-16T00:42:17;15.10;99.90
19999;DHT22;10160;50.926;4.374;2022-10-16T00:44:55;15.10;99.90
19999;DHT22;10160;50.926;4.374;2022-10-16T00:47:43;14.90;99.90
19999;DHT22;10160;50.926;4.374;2022-10-16T00:50:31;14.80;99.90
19999;DHT22;10160;50.926;4.374;2022-10-16T00:52:58;14.90;99.90
19999;DHT22;10160;50.926;4.374;2022-10-16T00:55:26;14.90;99.90
19999;DHT22;10160;50.926;4.374;2022-10-16T00:57:56;14.90;99.90
19999;DHT22;10160;50.926;4.374;2022-10-16T01:00:24;15.00;99.90
19999;DHT22;10160;50.926;4.374;2022-10-16T01:02:55;15.00;99.90
19999;DHT22;10160;50.926;4.374;2022-10-16T01:05:37;14.90;99.90
19999;DHT22;10160;50.926;4.374;2022-10-16T01:08:16;14.80;99.90
19999;DHT22;10160;50.926;4.374;2022-10-16T01:10:54;14.50;99.90
19999;DHT22;10160;50.926;4.374;2022-10-16T01:13:28;14.50;99.90
19999;DHT22;10160;50.926;4.374;2022-10-16T01:16:00;14.60;99.90
19999;DHT22;10160;50.926;4.374;2022-10-16T01:18:37;14.50;99.90
19999;DHT22;10160;50.926;4.374;2022-10-16T01:32:00;14.90;99.90
19999;DHT22;10160;50.926;4.374;2022-10-16T01:34:33;14.80;99.90
19999;DHT22;10160;50.926;4.374;2022-10-16T01:37:12;14.70;99.90
19999;DHT22;10160;50.926;4.374;2022-10-16T01:39:42;14.70;99.90
19999;DHT22;10160;50.926;4.374;2022-10-16T01:42:31;14.80;99.90
19999;DHT22;10160;50.926;4.374;2022-10-16T01:45:00;14.70;99.90
19999;DHT22;10160;50.926;4.374;2022-10-16T01:47:27;14.70;99.90
19999;DHT22;10160;50.926;4.374;2022-10-16T01:49:56;14.60;99.90
19999;DHT22;10160;50.926;4.374;2022-10-16T01:52:26;14.70;99.90
19999;DHT22;10160;50.926;4.374;2022-10-16T01:54:55;14.80;99.90
19999;DHT22;10160;50.926;4.374;2022-10-16T01:57:24;14.80;99.90
19999;DHT22;10160;50.926;4.374;2022-10-16T01:59:54;14.80;99.90
19999;DHT22;10160;50.926;4.374;2022-10-16T02:02:21;14.70;99.90
19999;DHT22;10160;50.926;4.374;2022-10-16T02:05:05;14.60;99.90
19999;DHT22;10160;50.926;4.374;2022-10-16T02:07:33;14.60;99.90
19999;DHT22;10160;50.926;4.374;2022-10-16T02:10:00;14.50;99.90
19999;DHT22;10160;50.926;4.374;2022-10-16T02:12:28;14.60;99.90
19999;DHT22;10160;50.926;4.374;2022-10-16T02:14:56;14.60;99.90
19999;DHT22;10160;50.926;4.374;2022-10-16T02:17:22;14.60;99.90
19999;DHT22;10160;50.926;4.374;2022-10-16T02:19:50;14.60;99.90
19999;DHT22;10160;50.926;4.374;2022-10-16T02:22:40;14.60;99.90
19999;DHT22;10160;50.926;4.374;2022-10-16T02:25:22;14.40;99.90
19999;DHT22;10160;50.926;4.374;2022-10-16T02:28:06;14.40;99.90
19999;DHT22;10160;50.926;4.374;2022-10-16T02:30:36;14.20;99.90
19999;DHT22;10160;50.926;4.374;2022-10-16T02:33:07;14.40;99.90
19999;DHT22;10160;50.926;4.374;2022-10-16T02:35:35;14.40;99.90
19999;DHT22;10160;50.926;4.374;2022-10-16T02:38:01;14.50;99.90
19999;DHT22;10160;50.926;4.374;2022-10-16T02:40:27;14.20;99.90
19999;DHT22;10160;50.926;4.374;2022-10-16T02:42:54;14.10;99.90
19999;DHT22;10160;50.926;4.374;2022-10-16T02:45:20;14.20;99.90
19999;DHT22;10160;50.926;4.374;2022-10-16T02:47:46;14.20;99.90
19999;DHT22;10160;50.926;4.374;2022-10-16T02:50:12;14.30;99.90
19999;DHT22;10160;50.926;4.374;2022-10-16T02:52:38;14.20;99.90
19999;DHT22;10160;50.926;4.374;2022-10-16T02:55:04;14.30;99.90
19999;DHT22;10160;50.926;4.374;2022-10-16T02:57:30;14.30;99.90
19999;DHT22;10160;50.926;4.374;2022-10-16T02:59:56;14.40;99.90
19999;DHT22;10160;50.926;4.374;2022-10-16T03:02:22;14.30;99.90
19999;DHT22;10160;50.926;4.374;2022-10-16T03:04:47;14.50;99.90
19999;DHT22;10160;50.926;4.374;2022-10-16T03:07:13;14.50;99.90
19999;DHT22;10160;50.926;4.374;2022-10-16T03:09:38;14.50;99.90
19999;DHT22;10160;50.926;4.374;2022-10-16T03:12:04;14.30;99.90
19999;DHT22;10160;50.926;4.374;2022-10-16T03:14:30;14.20;99.90
19999;DHT22;10160;50.926;4.374;2022-10-16T03:16:56;14.20;99.90
19999;DHT22;10160;50.926;4.374;2022-10-16T03:19:21;14.20;99.90
19999;DHT22;10160;50.926;4.374;2022-10-16T03:21:47;14.30;99.90
19999;DHT22;10160;50.926;4.374;2022-10-16T03:24:13;14.20;99.90
19999;DHT22;10160;50.926;4.374;2022-10-16T03:26:38;14.20;99.90
19999;DHT22;10160;50.926;4.374;2022-10-16T03:29:04;14.40;99.90
19999;DHT22;10160;50.926;4.374;2022-10-16T03:31:30;14.50;99.90
19999;DHT22;10160;50.926;4.374;2022-10-16T03:33:56;14.40;99.90
19999;DHT22;10160;50.926;4.374;2022-10-16T03:36:22;14.50;99.90
19999;DHT22;10160;50.926;4.374;2022-10-16T03:38:47;14.50;99.90
19999;DHT22;10160;50.926;4.374;2022-10-16T03:41:13;14.50;99.90
19999;DHT22;10160;50.926;4.374;2022-10-16T03:43:38;14.40;99.90
19999;DHT22;10160;50.926;4.374;2022-10-16T03:46:04;14.30;99.90
19999;DHT22;10160;50.926;4.374;2022-10-16T03:48:30;14.30;99.90
19999;DHT22;10160;50.926;4.374;2022-10-16T03:50:57;14.40;99.90
19999;DHT22;10160;50.926;4.374;2022-10-16T03:53:23;14.60;99.90
19999;DHT22;10160;50.926;4.374;2022-10-16T03:55:49;14.60;99.90
19999;DHT22;10160;50.926;4.374;2022-10-16T03:58:14;14.60;99.90
19999;DHT22;10160;50.926;4.374;2022-10-16T04:00:41;14.60;99.90
19999;DHT22;10160;50.926;4.374;2022-10-16T04:03:07;14.70;99.90
19999;DHT22;10160;50.926;4.374;2022-10-16T04:05:33;14.80;99.90
19999;DHT22;10160;50.926;4.374;2022-10-16T04:07:59;14.70;99.90
19999;DHT22;10160;50.926;4.374;2022-10-16T04:10:25;14.60;99.90
19999;DHT22;10160;50.926;4.374;2022-10-16T04:12:50;14.60;99.90
19999;DHT22;10160;50.926;4.374;2022-10-16T04:15:16;14.60;99.90
19999;DHT22;10160;50.926;4.374;2022-10-16T04:17:42;14.50;99.90
19999;DHT22;10160;50.926;4.374;2022-10-16T04:20:08;14.50;99.90
19999;DHT22;10160;50.926;4.374;2022-10-16T04:22:34;14.50;99.90
19999;DHT22;10160;50.926;4.374;2022-10-16T04:24:59;14.40;99.90
19999;DHT22;10160;50.926;4.374;2022-10-16T04:27:25;14.40;99.90
19999;DHT22;10160;50.926;4.374;2022-10-16T04:29:51;14.50;99.90
19999;DHT22;10160;50.926;4.374;2022-10-16T04:32:16;14.50;99.90
19999;DHT22;10160;50.926;4.374;2022-10-16T04:34:42;14.50;99.90
19999;DHT22;10160;50.926;4.374;2022-10-16T04:37:08;14.60;99.90
19999;DHT22;10160;50.926;4.374;2022-10-16T04:39:33;14.50;99.90
19999;DHT22;10160;50.926;4.374;2022-10-16T04:41:59;14.40;99.90
19999;DHT22;10160;50.926;4.374;2022-10-16T04:44:25;14.40;99.90
19999;DHT22;10160;50.926;4.374;2022-10-16T04:46:51;14.50;99.90
19999;DHT22;10160;50.926;4.374;2022-10-16T04:49:16;14.40;99.90
19999;DHT22;10160;50.926;4.374;2022-10-16T04:51:42;14.40;99.90
19999;DHT22;10160;50.926;4.374;2022-10-16T04:54:09;14.50;99.90
19999;DHT22;10160;50.926;4.374;2022-10-16T04:56:35;14.50;99.90
19999;DHT22;10160;50.926;4.374;2022-10-16T04:59:08;14.50;99.90
19999;DHT22;10160;50.926;4.374;2022-10-16T05:01:33;14.50;99.90
19999;DHT22;10160;50.926;4.374;2022-10-16T05:03:59;14.50;99.90
19999;DHT22;10160;50.926;4.374;2022-10-16T05:06:24;14.40;99.90
19999;DHT22;10160;50.926;4.374;2022-10-16T05:08:50;14.40;99.90
19999;DHT22;10160;50.926;4.374;2022-10-16T05:11:16;14.40;99.90
19999;DHT22;10160;50.926;4.374;2022-10-16T05:13:41;14.20;99.90
19999;DHT22;10160;50.926;4.374;2022-10-16T05:16:07;14.20;99.90
19999;DHT22;10160;50.926;4.374;2022-10-16T05:18:33;14.30;99.90
19999;DHT22;10160;50.926;4.374;2022-10-16T05:20:58;14.20;99.90
19999;DHT22;10160;50.926;4.374;2022-10-16T05:23:24;14.30;99.90
19999;DHT22;10160;50.926;4.374;2022-10-16T05:25:57;14.10;99.90
19999;DHT22;10160;50.926;4.374;2022-10-16T05:28:24;14.20;99.90
19999;DHT22;10160;50.926;4.374;2022-10-16T05:30:50;14.20;99.90
19999;DHT22;10160;50.926;4.374;2022-10-16T05:33:16;14.10;99.90
19999;DHT22;10160;50.926;4.374;2022-10-16T05:35:42;14.20;99.90
19999;DHT22;10160;50.926;4.374;2022-10-16T05:38:08;14.20;99.90
19999;DHT22;10160;50.926;4.374;2022-10-16T05:40:33;14.20;99.90
19999;DHT22;10160;50.926;4.374;2022-10-16T05:42:59;14.20;99.90
19999;DHT22;10160;50.926;4.374;2022-10-16T05:45:24;14.10;99.90
19999;DHT22;10160;50.926;4.374;2022-10-16T05:47:50;14.20;99.90
19999;DHT22;10160;50.926;4.374;2022-10-16T05:50:16;14.20;99.90
19999;DHT22;10160;50.926;4.374;2022-10-16T05:52:42;14.10;99.90
19999;DHT22;10160;50.926;4.374;2022-10-16T05:55:08;14.10;99.90
19999;DHT22;10160;50.926;4.374;2022-10-16T05:57:33;14.10;99.90
19999;DHT22;10160;50.926;4.374;2022-10-16T05:59:59;14.10;99.90
19999;DHT22;10160;50.926;4.374;2022-10-16T06:02:25;14.20;99.90
19999;DHT22;10160;50.926;4.374;2022-10-16T06:04:53;14.20;99.90
19999;DHT22;10160;50.926;4.374;2022-10-16T06:07:19;14.20;99.90
19999;DHT22;10160;50.926;4.374;2022-10-16T06:09:51;14.20;99.90
19999;DHT22;10160;50.926;4.374;2022-10-16T06:12:18;14.20;99.90
19999;DHT22;10160;50.926;4.374;2022-10-16T06:14:45;14.20;99.90
19999;DHT22;10160;50.926;4.374;2022-10-16T06:17:13;14.20;99.90
19999;DHT22;10160;50.926;4.374;2022-10-16T06:19:38;14.10;99.90
19999;DHT22;10160;50.926;4.374;2022-10-16T06:22:04;14.10;99.90
19999;DHT22;10160;50.926;4.374;2022-10-16T06:24:30;14.10;99.90
19999;DHT22;10160;50.926;4.374;2022-10-16T06:26:55;14.20;99.90
19999;DHT22;10160;50.926;4.374;2022-10-16T06:29:21;14.20;99.90
19999;DHT22;10160;50.926;4.374;2022-10-16T06:31:47;14.20;99.90
19999;DHT22;10160;50.926;4.374;2022-10-16T06:34:12;14.10;99.90
19999;DHT22;10160;50.926;4.374;2022-10-16T06:36:38;14.20;99.90
19999;DHT22;10160;50.926;4.374;2022-10-16T06:39:04;14.30;99.90
19999;DHT22;10160;50.926;4.374;2022-10-16T06:41:32;14.40;99.90
19999;DHT22;10160;50.926;4.374;2022-10-16T06:43:58;14.40;99.90
19999;DHT22;10160;50.926;4.374;2022-10-16T06:46:24;14.60;99.90
19999;DHT22;10160;50.926;4.374;2022-10-16T06:48:51;14.60;99.90
19999;DHT22;10160;50.926;4.374;2022-10-16T06:51:19;14.70;99.90
19999;DHT22;10160;50.926;4.374;2022-10-16T06:54:03;14.80;99.90
19999;DHT22;10160;50.926;4.374;2022-10-16T06:56:29;14.80;99.90
19999;DHT22;10160;50.926;4.374;2022-10-16T06:58:56;14.80;99.90
19999;DHT22;10160;50.926;4.374;2022-10-16T07:01:23;14.80;99.90
19999;DHT22;10160;50.926;4.374;2022-10-16T07:03:49;14.70;99.90
19999;DHT22;10160;50.926;4.374;2022-10-16T07:06:19;14.70;99.90
19999;DHT22;10160;50.926;4.374;2022-10-16T07:08:46;14.80;99.90
19999;DHT22;10160;50.926;4.374;2022-10-16T07:11:17;14.80;99.90
19999;DHT22;10160;50.926;4.374;2022-10-16T07:13:44;14.70;99.90
19999;DHT22;10160;50.926;4.374;2022-10-16T07:16:19;14.70;99.90
19999;DHT22;10160;50.926;4.374;2022-10-16T07:18:45;14.80;99.90
19999;DHT22;10160;50.926;4.374;2022-10-16T07:21:21;14.70;99.90
19999;DHT22;10160;50.926;4.374;2022-10-16T07:23:52;14.60;99.90
19999;DHT22;10160;50.926;4.374;2022-10-16T07:26:18;14.60;99.90
19999;DHT22;10160;50.926;4.374;2022-10-16T07:28:44;14.70;99.90
19999;DHT22;10160;50.926;4.374;2022-10-16T07:31:12;14.70;99.90
19999;DHT22;10160;50.926;4.374;2022-10-16T07:33:39;14.60;99.90
19999;DHT22;10160;50.926;4.374;2022-10-16T07:36:05;14.60;99.90
19999;DHT22;10160;50.926;4.374;2022-10-16T07:38:31;14.70;99.90
19999;DHT22;10160;50.926;4.374;2022-10-16T07:41:05;14.80;99.90
19999;DHT22;10160;50.926;4.374;2022-10-16T07:43:32;14.80;99.90
19999;DHT22;10160;50.926;4.374;2022-10-16T07:45:58;14.80;99.90
19999;DHT22;10160;50.926;4.374;2022-10-16T07:48:26;14.80;99.90
19999;DHT22;10160;50.926;4.374;2022-10-16T07:50:52;14.90;99.90
19999;DHT22;10160;50.926;4.374;2022-10-16T07:53:18;14.90;99.90
19999;DHT22;10160;50.926;4.374;2022-10-16T07:55:43;14.90;99.90
19999;DHT22;10160;50.926;4.374;2022-10-16T07:58:09;15.00;99.90
19999;DHT22;10160;50.926;4.374;2022-10-16T08:00:36;15.10;99.90
19999;DHT22;10160;50.926;4.374;2022-10-16T08:03:02;15.10;99.90
19999;DHT22;10160;50.926;4.374;2022-10-16T08:05:30;15.10;99.90
19999;DHT22;10160;50.926;4.374;2022-10-16T08:07:56;15.20;99.90
19999;DHT22;10160;50.926;4.374;2022-10-16T08:10:25;15.30;99.90
19999;DHT22;10160;50.926;4.374;2022-10-16T08:12:51;15.40;99.90
19999;DHT22;10160;50.926;4.374;2022-10-16T08:15:17;15.40;99.90
19999;DHT22;10160;50.926;4.374;2022-10-16T08:17:43;15.40;99.90
19999;DHT22;10160;50.926;4.374;2022-10-16T08:20:10;15.50;99.90
19999;DHT22;10160;50.926;4.374;2022-10-16T08:22:36;15.30;99.90
19999;DHT22;10160;50.926;4.374;2022-10-16T08:25:02;15.40;99.90
19999;DHT22;10160;50.926;4.374;2022-10-16T08:27:32;15.40;99.90
19999;DHT22;10160;50.926;4.374;2022-10-16T08:29:58;15.50;99.90
19999;DHT22;10160;50.926;4.374;2022-10-16T08:32:23;15.60;99.90
19999;DHT22;10160;50.926;4.374;2022-10-16T08:34:49;15.70;99.90
19999;DHT22;10160;50.926;4.374;2022-10-16T08:37:14;15.80;99.90
19999;DHT22;10160;50.926;4.374;2022-10-16T08:39:40;15.80;99.90
19999;DHT22;10160;50.926;4.374;2022-10-16T08:50:27;15.80;99.90
19999;DHT22;10160;50.926;4.374;2022-10-16T08:52:53;15.90;99.90
19999;DHT22;10160;50.926;4.374;2022-10-16T08:55:27;15.90;99.90
19999;DHT22;10160;50.926;4.374;2022-10-16T08:57:54;16.00;99.90
19999;DHT22;10160;50.926;4.374;2022-10-16T09:00:19;16.10;99.90
19999;DHT22;10160;50.926;4.374;2022-10-16T09:02:56;16.30;99.90
19999;DHT22;10160;50.926;4.374;2022-10-16T09:05:46;16.40;99.90
19999;DHT22;10160;50.926;4.374;2022-10-16T09:11:11;16.50;99.90
19999;DHT22;10160;50.926;4.374;2022-10-16T09:13:50;16.50;99.90
19999;DHT22;10160;50.926;4.374;2022-10-16T09:16:38;16.60;99.90
19999;DHT22;10160;50.926;4.374;2022-10-16T09:19:21;16.80;99.90
19999;DHT22;10160;50.926;4.374;2022-10-16T09:21:49;16.80;99.90
19999;DHT22;10160;50.926;4.374;2022-10-16T09:24:21;16.90;99.90
19999;DHT22;10160;50.926;4.374;2022-10-16T09:26:49;17.00;99.90
19999;DHT22;10160;50.926;4.374;2022-10-16T09:29:20;16.90;99.90
19999;DHT22;10160;50.926;4.374;2022-10-16T09:31:47;16.90;99.90
19999;DHT22;10160;50.926;4.374;2022-10-16T09:36:54;17.10;99.90
19999;DHT22;10160;50.926;4.374;2022-10-16T09:39:20;17.10;99.90
19999;DHT22;10160;50.926;4.374;2022-10-16T09:41:45;17.20;99.90
19999;DHT22;10160;50.926;4.374;2022-10-16T09:44:30;17.40;99.90
19999;DHT22;10160;50.926;4.374;2022-10-16T09:49:38;17.90;99.90
19999;DHT22;10160;50.926;4.374;2022-10-16T09:52:06;17.90;99.90
19999;DHT22;10160;50.926;4.374;2022-10-16T09:54:36;17.90;99.90
19999;DHT22;10160;50.926;4.374;2022-10-16T09:57:06;18.00;99.90
19999;DHT22;10160;50.926;4.374;2022-10-16T09:59:33;18.30;99.90
19999;DHT22;10160;50.926;4.374;2022-10-16T10:02:03;18.30;99.90
19999;DHT22;10160;50.926;4.374;2022-10-16T10:04:40;18.80;99.90
19999;DHT22;10160;50.926;4.374;2022-10-16T10:07:07;19.60;99.90
19999;DHT22;10160;50.926;4.374;2022-10-16T10:09:44;20.50;99.90
19999;DHT22;10160;50.926;4.374;2022-10-16T10:14:52;22.40;99.90
19999;DHT22;10160;50.926;4.374;2022-10-16T10:17:20;22.70;99.90
19999;DHT22;10160;50.926;4.374;2022-10-16T10:22:45;22.70;99.90
19999;DHT22;10160;50.926;4.374;2022-10-16T10:30:15;25.90;99.90
19999;DHT22;10160;50.926;4.374;2022-10-16T10:35:54;26.00;99.90
19999;DHT22;10160;50.926;4.374;2022-10-16T10:40:57;24.30;99.90
19999;DHT22;10160;50.926;4.374;2022-10-16T10:46:32;22.60;99.90
19999;DHT22;10160;50.926;4.374;2022-10-16T10:54:58;22.90;99.90
19999;DHT22;10160;50.926;4.374;2022-10-16T11:06:06;25.90;99.90
19999;DHT22;10160;50.926;4.374;2022-10-16T11:08:49;26.20;99.90
19999;DHT22;10160;50.926;4.374;2022-10-16T11:11:23;27.60;99.90
19999;DHT22;10160;50.926;4.374;2022-10-16T11:14:00;28.50;99.90
19999;DHT22;10160;50.926;4.374;2022-10-16T11:16:44;28.20;99.90
19999;DHT22;10160;50.926;4.374;2022-10-16T11:22:26;28.10;99.90
19999;DHT22;10160;50.926;4.374;2022-10-16T11:25:16;27.70;99.90
19999;DHT22;10160;50.926;4.374;2022-10-16T11:30:50;27.50;99.90
19999;DHT22;10160;50.926;4.374;2022-10-16T11:33:26;29.40;99.90
19999;DHT22;10160;50.926;4.374;2022-10-16T11:39:31;29.90;99.90
19999;DHT22;10160;50.926;4.374;2022-10-16T11:41:41;30.80;99.60
19999;DHT22;10160;50.926;4.374;2022-10-16T11:49:36;26.90;99.30
19999;DHT22;10160;50.926;4.374;2022-10-16T11:55:40;25.80;99.90
19999;DHT22;10160;50.926;4.374;2022-10-16T11:58:45;24.20;99.90
19999;DHT22;10160;50.926;4.374;2022-10-16T12:03:58;22.80;99.90
19999;DHT22;10160;50.926;4.374;2022-10-16T12:06:31;22.60;99.90
19999;DHT22;10160;50.926;4.374;2022-10-16T12:09:00;22.60;99.90
19999;DHT22;10160;50.926;4.374;2022-10-16T12:19:22;23.10;99.90
19999;DHT22;10160;50.926;4.374;2022-10-16T12:21:49;24.30;99.90
19999;DHT22;10160;50.926;4.374;2022-10-16T12:24:38;25.60;99.90
19999;DHT22;10160;50.926;4.374;2022-10-16T12:29:54;24.40;99.90
19999;DHT22;10160;50.926;4.374;2022-10-16T12:32:29;22.90;99.90
19999;DHT22;10160;50.926;4.374;2022-10-16T12:34:56;23.00;99.90
19999;DHT22;10160;50.926;4.374;2022-10-16T12:37:49;22.40;99.90
19999;DHT22;10160;50.926;4.374;2022-10-16T12:40:32;22.10;99.90
19999;DHT22;10160;50.926;4.374;2022-10-16T12:43:10;21.70;99.90
19999;DHT22;10160;50.926;4.374;2022-10-16T12:45:36;21.40;99.90
19999;DHT22;10160;50.926;4.374;2022-10-16T12:48:03;21.40;99.90
19999;DHT22;10160;50.926;4.374;2022-10-16T12:50:38;21.20;99.90
19999;DHT22;10160;50.926;4.374;2022-10-16T12:53:22;20.80;99.90
19999;DHT22;10160;50.926;4.374;2022-10-16T12:58:37;20.10;99.90
19999;DHT22;10160;50.926;4.374;2022-10-16T13:19:28;20.40;99.90
19999;DHT22;10160;50.926;4.374;2022-10-16T13:22:14;20.10;99.90
19999;DHT22;10160;50.926;4.374;2022-10-16T13:30:28;20.40;99.90
19999;DHT22;10160;50.926;4.374;2022-10-16T13:33:15;20.30;99.90
19999;DHT22;10160;50.926;4.374;2022-10-16T13:35:54;20.50;99.90
19999;DHT22;10160;50.926;4.374;2022-10-16T13:38:28;20.50;99.90
19999;DHT22;10160;50.926;4.374;2022-10-16T13:41:06;20.30;99.90
19999;DHT22;10160;50.926;4.374;2022-10-16T13:43:41;20.50;99.90
19999;DHT22;10160;50.926;4.374;2022-10-16T13:46:14;20.50;99.90
19999;DHT22;10160;50.926;4.374;2022-10-16T13:48:40;20.40;99.90
19999;DHT22;10160;50.926;4.374;2022-10-16T13:53:38;20.20;99.90
19999;DHT22;10160;50.926;4.374;2022-10-16T13:56:07;20.10;99.90
19999;DHT22;10160;50.926;4.374;2022-10-16T13:58:33;20.20;99.90
19999;DHT22;10160;50.926;4.374;2022-10-16T14:01:04;20.20;99.90
19999;DHT22;10160;50.926;4.374;2022-10-16T14:03:32;20.20;99.90
19999;DHT22;10160;50.926;4.374;2022-10-16T14:06:01;20.10;99.90
19999;DHT22;10160;50.926;4.374;2022-10-16T14:08:29;20.00;99.90
19999;DHT22;10160;50.926;4.374;2022-10-16T14:10:57;20.10;99.90
19999;DHT22;10160;50.926;4.374;2022-10-16T14:13:31;20.10;99.90
19999;DHT22;10160;50.926;4.374;2022-10-16T14:16:16;20.10;99.90
19999;DHT22;10160;50.926;4.374;2022-10-16T14:18:45;20.10;99.90
19999;DHT22;10160;50.926;4.374;2022-10-16T14:21:14;20.10;99.90
19999;DHT22;10160;50.926;4.374;2022-10-16T14:23:41;20.20;99.90
19999;DHT22;10160;50.926;4.374;2022-10-16T14:28:39;20.30;99.90
19999;DHT22;10160;50.926;4.374;2022-10-16T14:31:29;20.20;99.90
19999;DHT22;10160;50.926;4.374;2022-10-16T14:33:55;20.20;99.90
19999;DHT22;10160;50.926;4.374;2022-10-16T14:36:21;20.30;99.90
19999;DHT22;10160;50.926;4.374;2022-10-16T14:39:06;20.40;99.90
19999;DHT22;10160;50.926;4.374;2022-10-16T14:41:45;20.60;99.90
19999;DHT22;10160;50.926;4.374;2022-10-16T14:44:12;20.60;99.90
19999;DHT22;10160;50.926;4.374;2022-10-16T14:46:41;20.40;99.90
19999;DHT22;10160;50.926;4.374;2022-10-16T14:51:37;20.60;99.90
19999;DHT22;10160;50.926;4.374;2022-10-16T14:54:03;20.60;99.90
19999;DHT22;10160;50.926;4.374;2022-10-16T14:56:49;20.60;99.90
19999;DHT22;10160;50.926;4.374;2022-10-16T14:59:39;20.60;99.90
19999;DHT22;10160;50.926;4.374;2022-10-16T15:04:41;20.50;99.90
19999;DHT22;10160;50.926;4.374;2022-10-16T15:07:07;20.50;99.90
19999;DHT22;10160;50.926;4.374;2022-10-16T15:09:33;20.30;99.90
19999;DHT22;10160;50.926;4.374;2022-10-16T15:11:59;20.10;99.90
19999;DHT22;10160;50.926;4.374;2022-10-16T15:14:24;20.00;99.90
19999;DHT22;10160;50.926;4.374;2022-10-16T15:16:50;20.00;99.90
19999;DHT22;10160;50.926;4.374;2022-10-16T15:19:15;20.10;99.90
19999;DHT22;10160;50.926;4.374;2022-10-16T15:21:41;20.20;99.90
19999;DHT22;10160;50.926;4.374;2022-10-16T15:24:12;20.30;99.90
19999;DHT22;10160;50.926;4.374;2022-10-16T15:26:38;20.60;99.90
19999;DHT22;10160;50.926;4.374;2022-10-16T15:29:04;20.70;99.90
19999;DHT22;10160;50.926;4.374;2022-10-16T15:31:30;20.50;99.90
19999;DHT22;10160;50.926;4.374;2022-10-16T15:33:56;20.20;99.90
19999;DHT22;10160;50.926;4.374;2022-10-16T15:36:35;20.30;99.90
19999;DHT22;10160;50.926;4.374;2022-10-16T15:39:20;20.40;99.90
19999;DHT22;10160;50.926;4.374;2022-10-16T15:41:47;20.40;99.90
19999;DHT22;10160;50.926;4.374;2022-10-16T15:44:20;20.40;99.90
19999;DHT22;10160;50.926;4.374;2022-10-16T15:46:48;20.30;99.90
19999;DHT22;10160;50.926;4.374;2022-10-16T15:49:14;20.30;99.90
19999;DHT22;10160;50.926;4.374;2022-10-16T15:51:41;20.00;99.90
19999;DHT22;10160;50.926;4.374;2022-10-16T15:54:07;19.50;99.90
19999;DHT22;10160;50.926;4.374;2022-10-16T15:56:36;19.20;99.90
19999;DHT22;10160;50.926;4.374;2022-10-16T15:59:03;19.10;99.90
19999;DHT22;10160;50.926;4.374;2022-10-16T16:01:32;19.10;99.90
19999;DHT22;10160;50.926;4.374;2022-10-16T16:03:58;19.30;99.90
19999;DHT22;10160;50.926;4.374;2022-10-16T16:06:23;19.30;99.90
19999;DHT22;10160;50.926;4.374;2022-10-16T16:08:50;19.30;99.90
19999;DHT22;10160;50.926;4.374;2022-10-16T16:11:18;19.40;99.90
19999;DHT22;10160;50.926;4.374;2022-10-16T16:13:44;19.50;99.90
19999;DHT22;10160;50.926;4.374;2022-10-16T16:16:14;19.50;99.90
19999;DHT22;10160;50.926;4.374;2022-10-16T16:18:42;19.60;99.90
19999;DHT22;10160;50.926;4.374;2022-10-16T16:21:10;19.50;99.90
19999;DHT22;10160;50.926;4.374;2022-10-16T16:23:36;19.50;99.90
19999;DHT22;10160;50.926;4.374;2022-10-16T16:28:31;19.50;99.90
19999;DHT22;10160;50.926;4.374;2022-10-16T16:30:57;19.50;99.90
19999;DHT22;10160;50.926;4.374;2022-10-16T16:33:23;19.40;99.90
19999;DHT22;10160;50.926;4.374;2022-10-16T16:35:49;19.10;99.90
19999;DHT22;10160;50.926;4.374;2022-10-16T16:38:15;18.70;99.90
19999;DHT22;10160;50.926;4.374;2022-10-16T16:40:41;18.60;99.90
19999;DHT22;10160;50.926;4.374;2022-10-16T16:43:06;18.60;99.90
19999;DHT22;10160;50.926;4.374;2022-10-16T16:45:35;18.50;99.90
19999;DHT22;10160;50.926;4.374;2022-10-16T16:48:01;18.50;99.90
19999;DHT22;10160;50.926;4.374;2022-10-16T16:50:26;18.20;99.90
19999;DHT22;10160;50.926;4.374;2022-10-16T16:52:52;18.30;99.90
19999;DHT22;10160;50.926;4.374;2022-10-16T16:55:19;18.50;99.90
19999;DHT22;10160;50.926;4.374;2022-10-16T16:57:48;18.60;99.90
19999;DHT22;10160;50.926;4.374;2022-10-16T17:00:13;18.50;99.90
19999;DHT22;10160;50.926;4.374;2022-10-16T17:02:39;18.50;99.90
19999;DHT22;10160;50.926;4.374;2022-10-16T17:05:08;18.30;99.90
19999;DHT22;10160;50.926;4.374;2022-10-16T17:07:34;18.20;99.90
19999;DHT22;10160;50.926;4.374;2022-10-16T17:10:01;18.20;99.90
19999;DHT22;10160;50.926;4.374;2022-10-16T17:12:29;18.20;99.90
19999;DHT22;10160;50.926;4.374;2022-10-16T17:14:55;18.30;99.90
19999;DHT22;10160;50.926;4.374;2022-10-16T17:17:20;18.40;99.90
19999;DHT22;10160;50.926;4.374;2022-10-16T17:19:46;18.70;99.90
19999;DHT22;10160;50.926;4.374;2022-10-16T17:22:12;18.70;99.90
19999;DHT22;10160;50.926;4.374;2022-10-16T17:24:37;18.70;99.90
19999;DHT22;10160;50.926;4.374;2022-10-16T17:27:03;18.70;99.90
19999;DHT22;10160;50.926;4.374;2022-10-16T17:29:29;18.80;99.90
19999;DHT22;10160;50.926;4.374;2022-10-16T17:31:55;18.80;99.90
19999;DHT22;10160;50.926;4.374;2022-10-16T17:34:21;18.80;99.90
19999;DHT22;10160;50.926;4.374;2022-10-16T17:37:05;18.80;99.90
19999;DHT22;10160;50.926;4.374;2022-10-16T17:39:31;18.80;99.90
19999;DHT22;10160;50.926;4.374;2022-10-16T17:41:56;18.70;99.90
19999;DHT22;10160;50.926;4.374;2022-10-16T17:44:22;18.60;99.90
19999;DHT22;10160;50.926;4.374;2022-10-16T17:46:50;18.80;99.90
19999;DHT22;10160;50.926;4.374;2022-10-16T17:49:16;18.80;99.90
19999;DHT22;10160;50.926;4.374;2022-10-16T17:51:42;18.70;99.90
19999;DHT22;10160;50.926;4.374;2022-10-16T17:54:08;18.60;99.90